Kinoura — 3FHE5 — position and weather

sailwx.info

Track history (hours):
 
Tides and Currents Weather Stations Pressure Air Temp Water Temp Dewpoint Dewpoint Depression Visibility Wind Speed Wind Dir Waves Ship Positions

Kinoura

Last reported at 2015-Mar-20 12:20 UTC. Time now 2015-Mar-29 20:48 UTC.
Position S 23°27' E 154°04'.
Warning: this ship's position is 9 days out of date.

Length 227 m; draft 13.4 m.

Type: Cargo ship. MMSI: 373041000.

Date/timePositionNaut miles runAvg speedWind from/ knotsBaromVisibWave heightAir tempDewpointWater temp
2015-Mar-20 12:20S 23°27' E 154°04'810.3
2015-Mar-20 11:33S 23°35' E 154°04'1110.2
2015-Mar-20 10:30S 23°46' E 154°04'157 9.7
2015-Mar-19 18:24S 26°22' E 153°57'37 9.3
2015-Mar-19 14:24S 26°59' E 153°55'1010.4
2015-Mar-19 13:26S 27°09' E 153°55'1210.5
2015-Mar-19 12:15S 27°22' E 153°54'710.3
2015-Mar-19 11:33S 27°29' E 153°53'1010.0
2015-Mar-19 10:33S 27°39' E 153°53'10 9.8
2015-Mar-19 09:31S 27°49' E 153°53'9 9.7
2015-Mar-19 08:33S 27°58' E 153°52'10 9.7
2015-Mar-19 07:33S 28°08' E 153°51'1010.1
2015-Mar-19 06:33S 28°18' E 153°51'1010.3
2015-Mar-19 05:33S 28°28' E 153°50'8 8.1
2015-Mar-19 04:33S 28°36' E 153°50'243 9.0
2015-Mar-18 01:33S 32°32' E 152°43'10 9.6
2015-Mar-18 00:33S 32°39' E 152°35'10 9.7
2015-Mar-17 23:33S 32°46' E 152°27'9 9.4
2015-Mar-17 22:33S 32°51' E 152°17'9 9.1
2015-Mar-17 21:33S 32°54' E 152°07'10 9.9
2015-Mar-17 20:33S 32°58' E 151°56'8 7.6
2015-Mar-17 19:32S 32°55' E 151°47'2 2.0
2015-Mar-17 18:32S 32°53' E 151°46'0 0.0
2015-Mar-17 15:17S 32°53' E 151°46'0 0.0
2015-Mar-17 07:11S 32°53' E 151°46'0 0.0
2015-Mar-17 05:26S 32°53' E 151°46'0 0.1
2015-Mar-17 04:34S 32°53' E 151°46'1 0.9
2015-Mar-17 03:33S 32°54' E 151°46'6 6.3
2015-Mar-17 02:34S 32°58' E 151°52'7 6.9
2015-Mar-17 01:34S 33°03' E 151°58'2 2.2
2015-Mar-17 00:32S 33°04' E 152°01'1 1.4
2015-Mar-16 23:29S 33°03' E 152°02'1 1.1
2015-Mar-16 22:29S 33°02' E 152°03'4 4.2
2015-Mar-16 21:33S 33°02' E 151°58'1 0.9
2015-Mar-16 20:31S 33°02' E 151°60'1 0.8
2015-Mar-16 19:31S 33°02' E 152°01'1 1.1
2015-Mar-16 18:28S 33°02' E 152°02'1 1.1
2015-Mar-16 17:31S 33°02' E 152°03'1 1.1
2015-Mar-16 16:31S 33°02' E 152°04'1 1.3
2015-Mar-16 15:33S 33°00' E 152°05'9 9.3
2015-Mar-16 14:33S 32°51' E 152°03'1 1.2
2015-Mar-16 13:33S 32°52' E 152°03'1 1.0
2015-Mar-16 12:33S 32°53' E 152°03'1 1.1
2015-Mar-16 11:33S 32°54' E 152°03'1 1.1
2015-Mar-16 10:33S 32°55' E 152°04'1 1.1
2015-Mar-16 09:33S 32°56' E 152°05'1 0.9
2015-Mar-16 08:30S 32°57' E 152°05'1 0.9
2015-Mar-16 07:33S 32°58' E 152°06'1 0.8
2015-Mar-16 06:33S 32°58' E 152°06'1 0.8
2015-Mar-16 05:33S 32°59' E 152°07'4 4.3
2015-Mar-16 04:33S 32°55' E 152°04'2 2.2
2015-Mar-16 03:32S 32°54' E 152°02'2 1.6
2015-Mar-16 02:32S 32°55' E 152°04'2 1.7
2015-Mar-16 01:33S 32°55' E 152°06'1111.2
2015-Mar-16 00:33S 32°50' E 152°18'1211.9
2015-Mar-15 23:33S 32°44' E 152°30'1211.7
2015-Mar-15 22:33S 32°35' E 152°39'1410.8
2015-Mar-15 21:17S 32°23' E 152°47'25012.0
2015-Mar-15 00:24S 28°19' E 153°51'3712.8
2015-Mar-14 21:33S 27°42' E 153°53'1412.3
2015-Mar-14 20:25S 27°28' E 153°53'1111.7
2015-Mar-14 19:30S 27°18' E 153°54'1011.0
2015-Mar-14 18:33S 27°07' E 153°54'1110.5
2015-Mar-14 17:33S 26°57' E 153°55'  
Track history (hours):
 
Tides and Currents Weather Stations Pressure Air Temp Water Temp Dewpoint Dewpoint Depression Visibility Wind Speed Wind Dir Waves Ship Positions

Kinoura

Last reported at 2015-Mar-20 12:20 UTC. Time now 2015-Mar-29 20:48 UTC.
Position S 23°27' E 154°04'.
Warning: this ship's position is 9 days out of date.

Length 227 m; draft 13.4 m.

Type: Cargo ship. MMSI: 373041000.

Date/timePositionNaut miles runAvg speedWind from/ knotsBaromVisibWave heightAir tempDewpointWater temp
2015-Mar-20 12:20S 23°27' E 154°04'810.3
2015-Mar-20 11:33S 23°35' E 154°04'1110.2
2015-Mar-20 10:30S 23°46' E 154°04'157 9.7
2015-Mar-19 18:24S 26°22' E 153°57'37 9.3
2015-Mar-19 14:24S 26°59' E 153°55'1010.4
2015-Mar-19 13:26S 27°09' E 153°55'1210.5
2015-Mar-19 12:15S 27°22' E 153°54'710.3
2015-Mar-19 11:33S 27°29' E 153°53'1010.0
2015-Mar-19 10:33S 27°39' E 153°53'10 9.8
2015-Mar-19 09:31S 27°49' E 153°53'9 9.7
2015-Mar-19 08:33S 27°58' E 153°52'10 9.7
2015-Mar-19 07:33S 28°08' E 153°51'1010.1
2015-Mar-19 06:33S 28°18' E 153°51'1010.3
2015-Mar-19 05:33S 28°28' E 153°50'8 8.1
2015-Mar-19 04:33S 28°36' E 153°50'243 9.0
2015-Mar-18 01:33S 32°32' E 152°43'10 9.6
2015-Mar-18 00:33S 32°39' E 152°35'10 9.7
2015-Mar-17 23:33S 32°46' E 152°27'9 9.4
2015-Mar-17 22:33S 32°51' E 152°17'9 9.1
2015-Mar-17 21:33S 32°54' E 152°07'10 9.9
2015-Mar-17 20:33S 32°58' E 151°56'8 7.6
2015-Mar-17 19:32S 32°55' E 151°47'2 2.0
2015-Mar-17 18:32S 32°53' E 151°46'0 0.0
2015-Mar-17 15:17S 32°53' E 151°46'0 0.0
2015-Mar-17 07:11S 32°53' E 151°46'0 0.0
2015-Mar-17 05:26S 32°53' E 151°46'0 0.1
2015-Mar-17 04:34S 32°53' E 151°46'1 0.9
2015-Mar-17 03:33S 32°54' E 151°46'6 6.3
2015-Mar-17 02:34S 32°58' E 151°52'7 6.9
2015-Mar-17 01:34S 33°03' E 151°58'2 2.2
2015-Mar-17 00:32S 33°04' E 152°01'1 1.4
2015-Mar-16 23:29S 33°03' E 152°02'1 1.1
2015-Mar-16 22:29S 33°02' E 152°03'4 4.2
2015-Mar-16 21:33S 33°02' E 151°58'1 0.9
2015-Mar-16 20:31S 33°02' E 151°60'1 0.8
2015-Mar-16 19:31S 33°02' E 152°01'1 1.1
2015-Mar-16 18:28S 33°02' E 152°02'1 1.1
2015-Mar-16 17:31S 33°02' E 152°03'1 1.1
2015-Mar-16 16:31S 33°02' E 152°04'1 1.3
2015-Mar-16 15:33S 33°00' E 152°05'9 9.3
2015-Mar-16 14:33S 32°51' E 152°03'1 1.2
2015-Mar-16 13:33S 32°52' E 152°03'1 1.0
2015-Mar-16 12:33S 32°53' E 152°03'1 1.1
2015-Mar-16 11:33S 32°54' E 152°03'1 1.1
2015-Mar-16 10:33S 32°55' E 152°04'1 1.1
2015-Mar-16 09:33S 32°56' E 152°05'1 0.9
2015-Mar-16 08:30S 32°57' E 152°05'1 0.9
2015-Mar-16 07:33S 32°58' E 152°06'1 0.8
2015-Mar-16 06:33S 32°58' E 152°06'1 0.8
2015-Mar-16 05:33S 32°59' E 152°07'4 4.3
2015-Mar-16 04:33S 32°55' E 152°04'2 2.2
2015-Mar-16 03:32S 32°54' E 152°02'2 1.6
2015-Mar-16 02:32S 32°55' E 152°04'2 1.7
2015-Mar-16 01:33S 32°55' E 152°06'1111.2
2015-Mar-16 00:33S 32°50' E 152°18'1211.9
2015-Mar-15 23:33S 32°44' E 152°30'1211.7
2015-Mar-15 22:33S 32°35' E 152°39'1410.8
2015-Mar-15 21:17S 32°23' E 152°47'25012.0
2015-Mar-15 00:24S 28°19' E 153°51'3712.8
2015-Mar-14 21:33S 27°42' E 153°53'1412.3
2015-Mar-14 20:25S 27°28' E 153°53'1111.7
2015-Mar-14 19:30S 27°18' E 153°54'1011.0
2015-Mar-14 18:33S 27°07' E 153°54'1110.5
2015-Mar-14 17:33S 26°57' E 153°55'  

Dump ship's entire track history